Time;durP1;ratioP1;P1;durP2;ratioP2;P2;SDS_P1;SDS_P2;PMS_P1;PMS_P2;Temp;Humidity;BMP_temperature;BMP_pressure;BME280_temperature;BME280_humidity;BME280_pressure;Samples;Min_cycle;Max_cycle;Signal;HPM_P1;HPM_P2
2022/07/18 00:00:34;;;;;;;7.45;6.07;;;15.70;99.90;;;;;;5090465;28;20032;-29
2022/07/18 00:02:59;;;;;;;6.88;6.20;;;15.60;99.90;;;;;;5083026;28;20047;-29
2022/07/18 00:05:25;;;;;;;7.60;5.72;;;15.60;99.90;;;;;;5096397;28;20032;-30
2022/07/18 00:07:51;;;;;;;7.47;6.22;;;15.60;99.90;;;;;;5083023;28;20111;-30
2022/07/18 00:10:17;;;;;;;8.30;6.45;;;15.60;99.90;;;;;;5072846;28;20047;-30
2022/07/18 00:12:42;;;;;;;7.80;5.88;;;15.50;99.90;;;;;;5090504;28;20036;-30
2022/07/18 00:15:09;;;;;;;6.90;6.20;;;15.50;99.90;;;;;;5084668;28;20036;-30
2022/07/18 00:17:36;;;;;;;6.85;5.85;;;15.50;99.90;;;;;;5090698;28;20483;-30
2022/07/18 00:20:04;;;;;;;7.45;5.95;;;15.40;99.90;;;;;;5094584;28;20032;-30
2022/07/18 00:22:29;;;;;;;7.75;6.53;;;15.40;99.90;;;;;;5089954;28;20065;-30
2022/07/18 00:24:55;;;;;;;8.75;6.88;;;15.40;99.90;;;;;;5093059;28;20419;-30
2022/07/18 00:27:21;;;;;;;6.35;5.55;;;15.30;99.90;;;;;;5088103;28;20036;-30
2022/07/18 00:29:50;;;;;;;6.50;5.50;;;15.30;99.90;;;;;;5084545;28;20032;-30
2022/07/18 00:32:16;;;;;;;9.40;6.90;;;15.30;99.90;;;;;;5077080;28;20045;-30
2022/07/18 00:34:42;;;;;;;7.60;6.45;;;15.30;99.90;;;;;;5090193;28;20484;-30
2022/07/18 00:37:08;;;;;;;7.82;6.78;;;15.30;99.90;;;;;;5089763;28;20075;-30
2022/07/18 00:39:33;;;;;;;10.07;6.53;;;15.20;99.90;;;;;;5088321;28;20032;-30
2022/07/18 00:41:59;;;;;;;7.68;6.20;;;15.20;99.90;;;;;;5090559;28;20042;-30
2022/07/18 00:44:26;;;;;;;7.80;6.13;;;15.20;99.90;;;;;;5090129;28;20140;-30
2022/07/18 00:46:55;;;;;;;7.82;5.85;;;15.10;99.90;;;;;;5089693;28;20044;-30
2022/07/18 00:49:21;;;;;;;9.07;6.78;;;15.10;99.90;;;;;;5105772;22;20040;-27
2022/07/18 00:51:47;;;;;;;7.18;6.35;;;15.10;99.90;;;;;;5034443;28;20488;-28
2022/07/18 00:54:13;;;;;;;9.23;6.60;;;15.00;99.90;;;;;;5034428;28;20051;-28
2022/07/18 00:56:39;;;;;;;6.72;6.03;;;15.00;99.90;;;;;;5090208;28;20108;-28
2022/07/18 00:59:05;;;;;;;7.78;6.88;;;15.00;99.90;;;;;;5090859;28;20036;-27
2022/07/18 01:01:45;;;;;;;8.05;6.47;;;15.00;99.90;;;;;;5096186;28;20035;-27
2022/07/18 01:04:13;;;;;;;8.63;6.35;;;15.00;99.90;;;;;;5096495;28;20044;-27
2022/07/18 01:06:39;;;;;;;9.45;7.22;;;14.90;99.90;;;;;;5108538;28;20046;-27
2022/07/18 01:09:06;;;;;;;7.63;6.82;;;14.90;99.90;;;;;;5102293;28;20488;-27
2022/07/18 01:11:33;;;;;;;8.73;7.40;;;14.90;99.90;;;;;;5107336;28;20098;-27
2022/07/18 01:14:02;;;;;;;8.98;7.60;;;14.80;99.90;;;;;;5109406;28;20372;-28
2022/07/18 01:16:29;;;;;;;8.63;7.65;;;14.80;99.90;;;;;;5096839;28;20522;-25
2022/07/18 01:18:55;;;;;;;8.60;7.25;;;14.80;99.90;;;;;;5107320;28;20043;-25
2022/07/18 01:21:20;;;;;;;11.75;7.97;;;14.70;99.90;;;;;;5097839;28;20036;-25
2022/07/18 01:23:46;;;;;;;9.77;7.55;;;14.70;99.90;;;;;;5108295;28;20093;-25
2022/07/18 01:26:14;;;;;;;9.32;7.57;;;14.70;99.90;;;;;;5091125;28;20064;-25
2022/07/18 01:28:40;;;;;;;8.02;7.13;;;14.60;99.90;;;;;;5098091;28;20383;-25
2022/07/18 01:31:06;;;;;;;8.27;6.90;;;14.70;99.90;;;;;;5104310;28;20048;-25
2022/07/18 01:33:33;;;;;;;9.73;7.53;;;14.60;99.90;;;;;;5106935;28;20385;-25
2022/07/18 01:36:00;;;;;;;8.88;7.30;;;14.60;99.90;;;;;;5078928;28;20046;-25
2022/07/18 01:38:28;;;;;;;7.95;6.68;;;14.50;99.90;;;;;;5109926;28;20040;-25
2022/07/18 01:40:55;;;;;;;9.27;7.70;;;14.40;99.90;;;;;;5095840;28;20024;-25
2022/07/18 01:43:22;;;;;;;9.18;7.30;;;14.40;99.90;;;;;;5097708;28;20035;-25
2022/07/18 01:45:51;;;;;;;9.38;6.75;;;14.40;99.90;;;;;;5104115;28;20039;-25
2022/07/18 01:48:17;;;;;;;8.63;7.43;;;14.40;99.90;;;;;;5098207;28;20507;-25
2022/07/18 01:50:43;;;;;;;9.95;7.63;;;14.40;99.90;;;;;;5107159;28;20090;-22
2022/07/18 01:53:09;;;;;;;11.38;7.70;;;14.30;99.90;;;;;;5102919;28;20416;-22
2022/07/18 01:55:35;;;;;;;10.80;7.32;;;14.30;99.90;;;;;;5109753;28;20396;-22
2022/07/18 01:58:01;;;;;;;8.40;7.50;;;14.20;99.90;;;;;;5105367;28;20058;-22
2022/07/18 02:00:27;;;;;;;9.93;7.30;;;14.20;99.90;;;;;;5101111;28;20493;-22
2022/07/18 02:02:53;;;;;;;10.43;7.63;;;14.20;99.90;;;;;;5101196;28;20910;-22
2022/07/18 02:05:21;;;;;;;8.93;7.22;;;14.20;99.90;;;;;;5107407;28;20035;-22
2022/07/18 02:07:47;;;;;;;9.52;7.15;;;14.20;99.90;;;;;;5104018;28;20039;-22
2022/07/18 02:10:17;;;;;;;8.40;7.35;;;14.20;99.90;;;;;;5076122;28;20502;-22
2022/07/18 02:12:43;;;;;;;9.32;7.72;;;14.10;99.90;;;;;;5108181;28;20393;-22
2022/07/18 02:15:11;;;;;;;9.52;7.63;;;14.10;99.90;;;;;;5107044;28;20088;-23
2022/07/18 02:17:38;;;;;;;10.43;8.13;;;14.10;99.90;;;;;;5086953;28;20111;-22
2022/07/18 02:20:09;;;;;;;11.82;8.85;;;14.10;99.90;;;;;;5089450;28;20071;-22
2022/07/18 02:22:38;;;;;;;9.23;7.85;;;14.00;99.90;;;;;;5109350;28;20027;-22
2022/07/18 02:25:07;;;;;;;12.00;8.50;;;14.00;99.90;;;;;;5085372;28;20094;-25
2022/07/18 02:27:33;;;;;;;10.20;8.85;;;14.00;99.90;;;;;;5101742;28;20524;-25
2022/07/18 02:29:59;;;;;;;11.57;8.63;;;14.00;99.90;;;;;;5088372;28;20079;-25
2022/07/18 02:32:25;;;;;;;12.38;9.30;;;13.90;99.90;;;;;;5110309;28;20082;-25
2022/07/18 02:34:51;;;;;;;10.00;8.68;;;13.90;99.90;;;;;;5102983;28;20469;-26
2022/07/18 02:37:17;;;;;;;10.40;8.35;;;13.90;99.90;;;;;;5101107;28;20072;-27
2022/07/18 02:39:43;;;;;;;11.55;8.85;;;13.90;99.90;;;;;;5107202;28;20032;-25
2022/07/18 02:42:09;;;;;;;10.40;8.13;;;13.90;99.90;;;;;;5107174;28;20043;-27
2022/07/18 02:44:35;;;;;;;10.77;8.38;;;13.80;99.90;;;;;;5088859;28;20388;-24
2022/07/18 02:47:01;;;;;;;10.32;8.05;;;13.80;99.90;;;;;;5088524;28;20044;-27
2022/07/18 02:49:26;;;;;;;9.93;7.82;;;13.80;99.90;;;;;;5091809;28;20039;-24
2022/07/18 02:51:58;;;;;;;10.07;7.93;;;13.80;99.90;;;;;;5113483;28;20047;-26
2022/07/18 02:54:25;;;;;;;10.93;8.27;;;13.70;99.90;;;;;;5087414;28;20042;-27
2022/07/18 02:56:53;;;;;;;12.45;8.57;;;13.70;99.90;;;;;;5099660;28;20028;-27
2022/07/18 02:59:19;;;;;;;10.50;8.85;;;13.70;99.90;;;;;;5111174;28;20149;-26
2022/07/18 03:01:45;;;;;;;12.45;8.10;;;13.70;99.90;;;;;;5104730;28;20479;-24
2022/07/18 03:04:11;;;;;;;10.07;8.55;;;13.70;99.90;;;;;;5113725;28;20115;-25
2022/07/18 03:06:37;;;;;;;12.50;9.10;;;13.60;99.90;;;;;;5113334;28;20036;-24
2022/07/18 03:09:03;;;;;;;13.07;8.98;;;13.60;99.90;;;;;;5110759;28;20084;-24
2022/07/18 03:11:32;;;;;;;11.02;7.85;;;13.60;99.90;;;;;;5104963;28;20039;-27
2022/07/18 03:14:01;;;;;;;9.80;7.57;;;13.60;99.90;;;;;;5104134;28;20120;-27
2022/07/18 03:16:26;;;;;;;11.15;9.38;;;13.60;99.90;;;;;;5102398;28;20129;-27
2022/07/18 03:18:52;;;;;;;12.20;9.18;;;13.60;99.90;;;;;;5105668;28;20110;-27
2022/07/18 03:21:18;;;;;;;11.10;8.32;;;13.50;99.90;;;;;;5101516;28;20031;-27
2022/07/18 03:23:44;;;;;;;10.88;8.57;;;13.50;99.90;;;;;;5094815;28;20035;-27
2022/07/18 03:26:09;;;;;;;12.40;7.70;;;13.50;99.90;;;;;;5086435;28;20500;-27
2022/07/18 03:28:35;;;;;;;12.77;9.43;;;13.50;99.90;;;;;;5092136;28;20447;-27
2022/07/18 03:31:01;;;;;;;10.52;8.02;;;13.60;99.90;;;;;;5099897;28;20118;-27
2022/07/18 03:33:27;;;;;;;13.20;8.45;;;13.50;99.90;;;;;;5109737;28;20459;-27
2022/07/18 03:35:52;;;;;;;11.35;8.57;;;13.50;99.90;;;;;;5077749;28;20032;-27
2022/07/18 03:38:19;;;;;;;11.15;9.25;;;13.50;99.90;;;;;;5093785;28;20035;-23
2022/07/18 03:40:44;;;;;;;10.88;8.52;;;13.60;99.90;;;;;;5093868;28;20036;-23
2022/07/18 03:43:10;;;;;;;12.45;8.57;;;13.60;99.90;;;;;;5094160;28;20032;-25
2022/07/18 03:45:36;;;;;;;13.05;9.23;;;13.60;99.90;;;;;;5103684;28;20036;-24
2022/07/18 03:48:01;;;;;;;10.77;8.75;;;13.60;99.90;;;;;;5110268;28;20036;-24
2022/07/18 03:50:27;;;;;;;13.93;9.60;;;13.60;99.90;;;;;;5103214;28;20030;-24
2022/07/18 03:52:53;;;;;;;12.40;9.30;;;13.70;99.90;;;;;;5111427;28;20361;-24
2022/07/18 03:55:20;;;;;;;11.38;9.43;;;13.80;99.90;;;;;;5108070;28;20047;-24
2022/07/18 03:57:46;;;;;;;16.05;10.05;;;13.80;99.90;;;;;;5098096;28;20452;-24
2022/07/18 04:00:13;;;;;;;12.07;8.82;;;13.80;99.90;;;;;;5102237;28;20032;-24
2022/07/18 04:02:42;;;;;;;13.40;10.00;;;13.90;99.90;;;;;;5099920;28;20024;-27
2022/07/18 04:05:09;;;;;;;10.57;9.13;;;13.90;99.90;;;;;;5097357;28;20041;-27
2022/07/18 04:07:35;;;;;;;10.52;9.13;;;14.00;99.90;;;;;;5097954;28;20089;-27
2022/07/18 04:10:01;;;;;;;10.95;8.73;;;14.00;99.90;;;;;;5101989;28;20552;-27
2022/07/18 04:12:27;;;;;;;11.88;8.35;;;13.90;99.90;;;;;;5104031;28;20481;-27
2022/07/18 04:14:52;;;;;;;10.98;8.45;;;14.00;99.90;;;;;;5100538;28;20078;-27
2022/07/18 04:17:18;;;;;;;9.60;8.50;;;14.00;99.90;;;;;;5096215;28;20035;-27
2022/07/18 04:19:44;;;;;;;11.95;9.10;;;14.10;99.90;;;;;;5098998;28;20039;-27
2022/07/18 04:22:09;;;;;;;12.55;8.73;;;14.10;99.90;;;;;;5101761;28;20028;-27
2022/07/18 04:24:35;;;;;;;12.45;9.18;;;14.10;99.90;;;;;;5097221;28;20047;-27
2022/07/18 04:27:01;;;;;;;10.90;7.97;;;14.20;99.90;;;;;;5095443;28;20039;-27
2022/07/18 04:29:27;;;;;;;11.68;8.57;;;14.20;99.90;;;;;;5097556;28;20043;-27
2022/07/18 04:31:52;;;;;;;11.35;8.48;;;14.20;99.90;;;;;;5099069;28;20504;-27
2022/07/18 04:34:18;;;;;;;10.73;8.98;;;14.20;99.90;;;;;;5096911;28;20035;-27
2022/07/18 04:36:44;;;;;;;11.73;8.68;;;14.20;99.90;;;;;;5088030;28;20028;-26
2022/07/18 04:39:09;;;;;;;11.05;8.48;;;14.20;99.90;;;;;;5082360;28;20038;-27
2022/07/18 04:41:35;;;;;;;12.63;8.55;;;14.30;99.90;;;;;;5089555;28;20145;-27
2022/07/18 04:44:04;;;;;;;11.75;8.20;;;14.30;99.90;;;;;;5080792;28;20040;-27
2022/07/18 04:46:30;;;;;;;9.38;7.80;;;14.30;99.90;;;;;;5091910;28;20031;-27
2022/07/18 04:48:56;;;;;;;12.90;8.35;;;14.40;99.90;;;;;;5095468;28;20040;-27
2022/07/18 04:51:21;;;;;;;13.55;8.32;;;14.40;99.90;;;;;;5095721;28;20484;-27
2022/07/18 04:53:48;;;;;;;11.10;8.63;;;14.50;99.90;;;;;;5093134;28;20036;-27
2022/07/18 04:56:13;;;;;;;12.13;9.00;;;14.50;99.90;;;;;;5090597;28;20047;-27
2022/07/18 04:58:39;;;;;;;11.45;8.82;;;14.60;99.90;;;;;;5103261;28;20035;-27
2022/07/18 05:01:05;;;;;;;12.52;9.80;;;14.70;99.90;;;;;;5092425;28;20029;-27
2022/07/18 05:03:31;;;;;;;14.93;8.85;;;14.90;99.90;;;;;;5083040;28;20032;-27
2022/07/18 05:05:56;;;;;;;11.30;8.27;;;15.00;99.90;;;;;;5104058;28;20039;-27
2022/07/18 05:08:22;;;;;;;10.52;8.63;;;15.10;99.90;;;;;;5105787;28;20035;-27
2022/07/18 05:10:48;;;;;;;11.32;8.77;;;15.10;99.90;;;;;;5097977;28;20031;-27
2022/07/18 05:13:14;;;;;;;11.40;8.50;;;15.20;99.90;;;;;;5100432;28;20036;-27
2022/07/18 05:15:40;;;;;;;12.63;8.60;;;15.30;99.90;;;;;;5093555;28;20111;-27
2022/07/18 05:18:08;;;;;;;12.32;8.25;;;15.30;99.90;;;;;;5079467;28;20054;-27
2022/07/18 05:20:35;;;;;;;10.02;8.02;;;15.30;99.90;;;;;;5080247;28;20036;-25
2022/07/18 05:23:00;;;;;;;9.45;7.63;;;15.30;99.90;;;;;;5060454;28;20455;-25
2022/07/18 05:25:26;;;;;;;8.85;7.22;;;15.40;99.90;;;;;;5098026;28;20035;-25
2022/07/18 05:27:55;;;;;;;10.45;7.93;;;15.50;99.90;;;;;;5085515;28;20047;-25
2022/07/18 05:30:23;;;;;;;11.15;8.10;;;15.50;99.90;;;;;;5095006;28;20500;-24
2022/07/18 05:32:49;;;;;;;11.13;7.30;;;15.60;99.90;;;;;;5109826;28;20039;-23
2022/07/18 05:35:15;;;;;;;8.23;7.13;;;15.70;99.90;;;;;;5082391;28;20044;-25
2022/07/18 05:37:44;;;;;;;12.93;7.80;;;15.70;99.90;;;;;;5106907;28;20027;-23
2022/07/18 05:40:12;;;;;;;9.07;7.53;;;15.90;99.90;;;;;;5108809;28;20027;-23
2022/07/18 05:42:45;;;;;;;11.68;7.82;;;15.90;99.90;;;;;;5083093;28;20044;-24
2022/07/18 05:45:12;;;;;;;9.95;7.13;;;16.00;99.90;;;;;;5112504;28;20043;-23
2022/07/18 05:47:38;;;;;;;9.18;7.75;;;16.00;99.90;;;;;;5108975;28;20119;-28
2022/07/18 05:50:05;;;;;;;9.45;7.05;;;16.10;99.90;;;;;;5094222;28;20119;-26
2022/07/18 05:52:31;;;;;;;9.68;7.28;;;16.20;99.90;;;;;;5092342;28;20041;-26
2022/07/18 05:55:00;;;;;;;11.50;7.10;;;16.30;99.90;;;;;;5101390;28;20127;-28
2022/07/18 05:57:26;;;;;;;9.48;7.15;;;16.50;99.90;;;;;;5110805;28;20118;-23
2022/07/18 05:59:52;;;;;;;13.00;7.50;;;16.70;99.90;;;;;;5116398;28;20034;-22
2022/07/18 06:02:18;;;;;;;8.45;6.43;;;16.90;99.90;;;;;;5098340;28;20039;-22
2022/07/18 06:04:43;;;;;;;13.70;6.70;;;17.10;99.90;;;;;;5116150;28;20086;-22
2022/07/18 06:07:09;;;;;;;10.05;6.65;;;17.30;99.90;;;;;;5116310;28;20050;-25
2022/07/18 06:09:37;;;;;;;13.35;7.00;;;17.40;99.90;;;;;;5116212;28;20036;-22
2022/07/18 06:12:03;;;;;;;10.45;6.10;;;17.50;99.90;;;;;;5097832;28;20330;-22
2022/07/18 06:14:30;;;;;;;7.93;6.05;;;17.60;99.90;;;;;;5116417;28;20092;-25
2022/07/18 06:16:56;;;;;;;8.52;5.97;;;17.60;99.90;;;;;;5116265;28;20415;-27
2022/07/18 06:19:22;;;;;;;8.30;5.68;;;17.80;99.90;;;;;;5116492;28;20116;-22
2022/07/18 06:21:48;;;;;;;9.65;5.82;;;17.80;99.90;;;;;;5116633;28;20035;-22
2022/07/18 06:24:14;;;;;;;6.32;5.30;;;18.00;99.90;;;;;;5116777;28;20498;-23
2022/07/18 06:26:39;;;;;;;5.93;4.95;;;18.10;99.90;;;;;;5116521;28;20100;-23
2022/07/18 06:29:08;;;;;;;7.07;5.70;;;18.20;99.90;;;;;;5116445;28;20050;-22
2022/07/18 06:31:34;;;;;;;7.30;5.15;;;18.40;99.90;;;;;;5116335;28;20445;-22
2022/07/18 06:33:59;;;;;;;6.35;5.32;;;18.60;99.90;;;;;;5116143;28;20039;-24
2022/07/18 06:36:25;;;;;;;6.38;5.68;;;18.70;99.90;;;;;;5080537;28;20377;-24
2022/07/18 06:38:51;;;;;;;7.40;5.80;;;18.80;99.90;;;;;;5115630;28;20040;-24
2022/07/18 06:41:18;;;;;;;7.00;5.85;;;18.90;99.90;;;;;;5115862;28;20116;-23
2022/07/18 06:43:44;;;;;;;5.45;4.90;;;19.00;99.90;;;;;;5115865;28;20039;-23
2022/07/18 06:46:10;;;;;;;8.07;5.15;;;19.10;99.90;;;;;;5080543;28;20046;-23
2022/07/18 06:48:35;;;;;;;8.38;5.32;;;19.20;99.90;;;;;;5114432;28;20051;-23
2022/07/18 06:51:04;;;;;;;6.72;5.60;;;19.20;99.90;;;;;;5115070;28;20027;-23
2022/07/18 06:53:30;;;;;;;9.88;5.38;;;19.30;99.90;;;;;;5115175;28;20040;-23
2022/07/18 06:55:56;;;;;;;8.85;5.50;;;19.40;99.90;;;;;;5115365;28;20115;-24
2022/07/18 06:58:22;;;;;;;6.78;5.18;;;19.40;99.90;;;;;;5116208;28;20425;-24
2022/07/18 07:00:48;;;;;;;7.78;5.28;;;19.50;99.90;;;;;;5115175;28;20043;-24
2022/07/18 07:03:14;;;;;;;8.18;4.82;;;19.60;99.90;;;;;;5115051;28;20040;-23
2022/07/18 07:05:40;;;;;;;9.50;5.47;;;19.60;99.90;;;;;;5114804;28;20036;-23
2022/07/18 07:08:05;;;;;;;7.88;5.00;;;19.80;99.90;;;;;;5094657;28;20499;-23
2022/07/18 07:10:31;;;;;;;7.90;5.03;;;19.90;99.90;;;;;;5115202;28;20031;-23
2022/07/18 07:12:57;;;;;;;6.10;5.03;;;20.10;99.90;;;;;;5115066;28;20032;-24
2022/07/18 07:15:23;;;;;;;8.65;4.72;;;20.30;99.90;;;;;;5115218;28;20043;-24
2022/07/18 07:17:50;;;;;;;6.70;5.03;;;20.50;99.90;;;;;;5114847;28;20035;-24
2022/07/18 07:20:19;;;;;;;7.03;4.95;;;20.70;99.90;;;;;;5115173;28;20061;-24
2022/07/18 07:22:48;;;;;;;8.25;4.72;;;20.90;99.90;;;;;;5115154;28;20504;-24
2022/07/18 07:25:15;;;;;;;9.13;4.30;;;21.10;99.90;;;;;;5115156;28;20040;-24
2022/07/18 07:27:42;;;;;;;5.60;3.50;;;21.20;99.90;;;;;;5096449;28;20040;-24
2022/07/18 07:30:08;;;;;;;5.70;3.22;;;21.40;99.90;;;;;;5114889;28;20039;-24
2022/07/18 07:32:36;;;;;;;8.05;3.65;;;21.60;99.90;;;;;;5114661;28;20063;-24
2022/07/18 07:35:06;;;;;;;5.13;3.75;;;21.80;99.90;;;;;;5114909;28;20046;-23
2022/07/18 07:37:35;;;;;;;6.18;3.50;;;22.00;99.60;;;;;;5114463;28;20097;-24
2022/07/18 07:40:01;;;;;;;7.60;3.80;;;22.20;98.40;;;;;;5115219;28;20036;-23
2022/07/18 07:42:27;;;;;;;5.40;3.22;;;22.30;99.30;;;;;;5114871;28;20032;-24
2022/07/18 07:44:52;;;;;;;3.38;3.08;;;22.40;95.50;;;;;;5114935;28;20481;-24
2022/07/18 07:47:18;;;;;;;8.80;3.70;;;22.50;94.30;;;;;;5115746;28;20077;-23
2022/07/18 07:49:44;;;;;;;5.50;3.33;;;22.60;95.20;;;;;;5095178;28;20032;-24
2022/07/18 07:52:13;;;;;;;7.45;3.10;;;22.70;92.80;;;;;;5111859;28;20373;-24
2022/07/18 07:54:39;;;;;;;3.92;3.13;;;22.80;94.40;;;;;;5110222;28;20140;-23
2022/07/18 07:57:05;;;;;;;5.22;3.15;;;23.00;94.40;;;;;;5112115;28;20066;-24
2022/07/18 07:59:31;;;;;;;4.88;2.78;;;23.20;91.10;;;;;;5094889;28;20378;-23
2022/07/18 08:01:58;;;;;;;6.30;2.60;;;23.30;92.20;;;;;;5113384;28;20074;-24
2022/07/18 08:04:24;;;;;;;3.60;2.72;;;23.40;89.70;;;;;;5113446;28;20044;-24
2022/07/18 08:06:50;;;;;;;3.40;2.15;;;23.60;87.90;;;;;;5113334;28;20042;-26
2022/07/18 08:09:16;;;;;;;4.22;1.90;;;23.80;88.00;;;;;;5110520;28;20042;-27
2022/07/18 08:11:42;;;;;;;3.70;2.20;;;24.00;83.30;;;;;;5108628;28;20035;-27
2022/07/18 08:14:14;;;;;;;4.72;2.00;;;24.00;84.00;;;;;;5090888;28;20088;-27
2022/07/18 08:16:44;;;;;;;3.35;2.10;;;24.00;78.20;;;;;;5095516;28;20036;-27
2022/07/18 08:19:10;;;;;;;3.33;1.95;;;24.10;80.60;;;;;;5097521;28;20103;-27
2022/07/18 08:21:36;;;;;;;6.68;2.40;;;24.20;83.00;;;;;;5089035;28;20059;-27
2022/07/18 08:24:10;;;;;;;5.78;2.20;;;24.50;83.90;;;;;;5092766;28;20074;-27
2022/07/18 08:26:38;;;;;;;3.38;1.92;;;24.70;72.40;;;;;;5090240;28;20043;-27
2022/07/18 08:29:05;;;;;;;4.30;2.00;;;24.80;69.30;;;;;;5098624;28;20075;-27
2022/07/18 08:31:31;;;;;;;3.85;1.90;;;25.00;68.80;;;;;;5098077;28;20546;-27
2022/07/18 08:33:58;;;;;;;3.17;1.90;;;25.00;65.60;;;;;;5091097;28;20070;-27
2022/07/18 08:36:24;;;;;;;4.30;2.33;;;25.20;62.90;;;;;;5101688;28;20113;-27
2022/07/18 08:38:50;;;;;;;3.63;1.85;;;25.40;65.50;;;;;;5096454;28;20035;-27
2022/07/18 08:41:22;;;;;;;5.32;2.00;;;25.50;60.70;;;;;;5094341;28;20134;-27
2022/07/18 08:43:48;;;;;;;3.53;2.08;;;25.50;59.90;;;;;;5096497;28;20040;-27
2022/07/18 08:46:18;;;;;;;4.63;2.15;;;25.50;61.00;;;;;;5097189;28;20047;-27
2022/07/18 08:48:44;;;;;;;4.97;2.00;;;25.70;60.90;;;;;;5083764;28;20089;-27
2022/07/18 08:51:10;;;;;;;3.30;2.28;;;25.90;61.50;;;;;;5086256;28;20043;-27
2022/07/18 08:53:37;;;;;;;6.20;2.10;;;26.20;59.20;;;;;;5101993;28;20119;-28
2022/07/18 08:56:04;;;;;;;3.92;2.60;;;26.60;58.80;;;;;;5093152;28;20035;-27
2022/07/18 08:58:30;;;;;;;4.50;2.03;;;27.00;57.80;;;;;;5089574;28;20078;-28
2022/07/18 09:00:59;;;;;;;2.65;1.85;;;27.20;55.20;;;;;;5094871;28;20043;-28
2022/07/18 09:03:26;;;;;;;6.03;2.28;;;27.60;54.50;;;;;;5091158;28;20032;-28
2022/07/18 09:06:10;;;;;;;4.88;2.25;;;27.80;52.40;;;;;;5077888;28;20032;-28
2022/07/18 09:08:37;;;;;;;6.10;2.33;;;27.90;50.90;;;;;;5095868;28;20039;-28
2022/07/18 09:11:09;;;;;;;6.53;1.80;;;28.20;50.90;;;;;;5075982;28;20035;-28
2022/07/18 09:13:34;;;;;;;6.00;2.13;;;28.30;50.80;;;;;;5093014;28;20040;-28
2022/07/18 09:16:03;;;;;;;5.18;2.20;;;28.40;50.30;;;;;;5099973;28;20066;-28
2022/07/18 09:18:31;;;;;;;5.25;2.00;;;28.50;49.10;;;;;;5097079;28;20054;-28
2022/07/18 09:21:08;;;;;;;3.88;2.47;;;28.40;49.30;;;;;;5098285;28;20488;-28
2022/07/18 09:23:39;;;;;;;5.38;2.00;;;28.30;49.10;;;;;;5101645;28;20036;-28
2022/07/18 09:26:06;;;;;;;5.07;2.40;;;28.50;49.60;;;;;;5101685;28;20028;-28
2022/07/18 09:28:53;;;;;;;2.83;2.10;;;28.50;48.90;;;;;;5095357;28;20062;-28
2022/07/18 09:31:25;;;;;;;3.65;2.08;;;28.50;47.60;;;;;;5096143;28;20374;-28
2022/07/18 09:34:01;;;;;;;7.63;2.25;;;28.50;48.30;;;;;;5099884;28;20572;-28
2022/07/18 09:36:28;;;;;;;3.45;2.15;;;28.60;48.20;;;;;;5096559;28;20028;-28
2022/07/18 09:38:54;;;;;;;3.30;2.13;;;29.00;48.50;;;;;;5095873;28;20485;-28
2022/07/18 09:41:26;;;;;;;2.88;2.00;;;29.20;48.20;;;;;;5101762;28;20058;-28
2022/07/18 09:43:54;;;;;;;2.45;1.90;;;29.40;48.20;;;;;;5091531;28;20064;-28
2022/07/18 09:46:20;;;;;;;5.18;2.17;;;29.60;48.10;;;;;;5090575;28;20031;-28
2022/07/18 09:56:09;;;;;;;5.07;2.10;;;29.50;44.10;;;;;;5105435;28;20057;-28
2022/07/18 09:58:50;;;;;;;4.35;2.10;;;29.40;44.70;;;;;;5085176;28;20066;-28
2022/07/18 10:01:17;;;;;;;2.70;1.83;;;29.50;45.60;;;;;;5100808;28;20104;-28
2022/07/18 10:03:43;;;;;;;2.60;1.80;;;29.70;45.60;;;;;;5103385;28;20036;-29
2022/07/18 10:06:12;;;;;;;3.28;1.92;;;30.10;45.90;;;;;;5108315;28;20081;-29
2022/07/18 10:08:42;;;;;;;4.18;2.20;;;30.40;44.80;;;;;;5088719;28;20490;-28
2022/07/18 10:11:09;;;;;;;2.60;1.95;;;30.60;44.90;;;;;;5097232;28;20036;-28
2022/07/18 10:13:37;;;;;;;7.07;2.10;;;30.80;44.20;;;;;;5074282;28;20078;-28
2022/07/18 10:16:05;;;;;;;4.07;2.30;;;30.90;43.50;;;;;;5089081;28;20047;-28
2022/07/18 10:18:33;;;;;;;3.55;2.00;;;30.80;43.10;;;;;;5101190;28;20028;-28
2022/07/18 10:21:06;;;;;;;3.33;1.88;;;30.70;42.30;;;;;;5102360;28;20040;-28
2022/07/18 10:23:42;;;;;;;4.60;2.28;;;30.80;42.00;;;;;;5092704;28;20024;-28
2022/07/18 10:26:19;;;;;;;3.72;2.42;;;30.80;41.30;;;;;;5098946;28;20507;-28
2022/07/18 10:28:57;;;;;;;3.38;2.15;;;31.00;43.20;;;;;;5105427;28;20061;-25
2022/07/18 10:31:25;;;;;;;4.47;2.00;;;30.80;40.70;;;;;;5120003;28;20050;-25
2022/07/18 10:33:52;;;;;;;2.22;1.70;;;30.70;41.20;;;;;;5100642;28;20050;-25
2022/07/18 10:36:22;;;;;;;4.38;2.35;;;30.70;42.60;;;;;;5106161;28;20040;-25
2022/07/18 10:39:28;;;;;;;5.00;1.85;;;31.00;41.20;;;;;;5098687;28;20043;-25
2022/07/18 10:41:54;;;;;;;4.32;2.00;;;31.20;42.00;;;;;;5084449;28;20164;-25
2022/07/18 10:44:28;;;;;;;3.33;2.10;;;31.30;42.30;;;;;;5081780;28;20069;-25
2022/07/18 10:47:08;;;;;;;5.95;2.22;;;31.70;41.40;;;;;;5100135;28;20464;-25
2022/07/18 10:49:46;;;;;;;3.80;2.10;;;32.10;41.40;;;;;;5098900;28;20090;-25
2022/07/18 10:52:35;;;;;;;4.10;2.30;;;32.20;38.40;;;;;;5098033;28;20123;-25
2022/07/18 10:55:04;;;;;;;3.03;2.10;;;32.40;38.50;;;;;;5098097;28;20440;-25
2022/07/18 10:57:41;;;;;;;4.80;2.30;;;32.60;38.90;;;;;;5099281;28;20035;-24
2022/07/18 11:00:11;;;;;;;4.70;2.13;;;32.80;37.70;;;;;;5107345;28;20044;-24
2022/07/18 11:02:41;;;;;;;4.45;2.17;;;32.70;38.00;;;;;;5118332;28;20066;-26
2022/07/18 11:05:25;;;;;;;2.13;1.85;;;32.70;38.50;;;;;;5071153;28;20047;-24
2022/07/18 11:08:03;;;;;;;4.70;2.50;;;32.80;37.50;;;;;;5098944;28;20051;-24
2022/07/18 11:10:41;;;;;;;4.15;2.40;;;32.90;36.00;;;;;;5098706;28;20396;-25
2022/07/18 11:13:49;;;;;;;2.65;2.05;;;33.00;36.70;;;;;;5099136;28;20079;-24
2022/07/18 11:16:12;;;;;;;3.33;2.25;;;33.00;36.00;;;;;;5098737;28;20040;-24
2022/07/18 11:18:43;;;;;;;3.53;2.50;;;33.20;37.10;;;;;;5097423;28;20090;-25
2022/07/18 11:21:27;;;;;;;2.45;2.25;;;33.60;36.80;;;;;;5095359;28;20032;-25
2022/07/18 11:24:08;;;;;;;4.20;2.30;;;33.60;35.30;;;;;;5097813;28;20436;-25
2022/07/18 11:26:36;;;;;;;3.45;2.78;;;33.60;36.70;;;;;;5095841;28;20044;-24
2022/07/18 11:29:02;;;;;;;4.80;2.40;;;33.50;35.50;;;;;;5078840;28;20466;-25
2022/07/18 11:31:32;;;;;;;4.32;2.65;;;33.30;35.10;;;;;;5098662;28;20036;-24
2022/07/18 11:34:00;;;;;;;5.00;2.53;;;33.40;35.30;;;;;;5099256;28;20087;-24
2022/07/18 11:36:31;;;;;;;3.90;2.22;;;33.50;35.30;;;;;;5098312;28;20484;-24
2022/07/18 11:39:03;;;;;;;4.00;2.40;;;33.60;35.90;;;;;;5098386;28;20119;-25
2022/07/18 11:41:29;;;;;;;3.00;2.40;;;33.50;35.40;;;;;;5099516;28;20032;-25
2022/07/18 11:43:56;;;;;;;2.90;2.55;;;33.60;35.00;;;;;;5097128;28;20552;-25
2022/07/18 11:46:24;;;;;;;2.83;2.60;;;33.60;35.70;;;;;;5096711;28;20036;-25
2022/07/18 11:49:01;;;;;;;6.00;2.55;;;33.60;35.60;;;;;;5096026;28;20044;-25
2022/07/18 11:51:38;;;;;;;4.00;2.35;;;33.80;35.10;;;;;;5096423;28;20055;-25
2022/07/18 11:54:05;;;;;;;4.00;2.40;;;33.60;34.60;;;;;;5096533;28;20036;-25
2022/07/18 11:56:31;;;;;;;3.47;2.75;;;33.40;35.40;;;;;;5095819;28;20047;-25
2022/07/18 11:58:57;;;;;;;3.58;2.78;;;33.50;35.70;;;;;;5098330;28;20339;-25
2022/07/18 12:01:32;;;;;;;2.90;2.17;;;33.30;35.70;;;;;;5098594;28;20079;-25
2022/07/18 12:03:57;;;;;;;2.65;2.22;;;33.00;35.80;;;;;;5079450;28;20500;-25
2022/07/18 12:06:24;;;;;;;5.40;2.58;;;32.60;37.00;;;;;;5097492;28;20051;-25
2022/07/18 12:08:52;;;;;;;3.70;2.10;;;32.30;36.30;;;;;;5079416;28;20051;-25
2022/07/18 12:11:38;;;;;;;3.58;2.50;;;32.40;37.10;;;;;;5098671;28;20047;-25
2022/07/18 12:14:07;;;;;;;4.72;2.28;;;32.20;35.80;;;;;;5097058;28;20079;-25
2022/07/18 12:16:37;;;;;;;3.65;2.80;;;32.00;36.20;;;;;;5061054;28;20108;-25
2022/07/18 12:19:12;;;;;;;4.32;2.70;;;31.80;37.30;;;;;;5095955;28;20063;-25
2022/07/18 12:21:54;;;;;;;4.70;2.85;;;31.80;37.60;;;;;;5060653;28;20039;-25
2022/07/18 12:24:29;;;;;;;4.78;2.63;;;32.10;37.80;;;;;;5062372;28;20043;-25
2022/07/18 12:27:09;;;;;;;4.65;3.10;;;32.40;37.40;;;;;;5098569;28;20073;-25
2022/07/18 12:30:02;;;;;;;4.25;2.90;;;32.40;36.40;;;;;;5096947;28;20419;-25
2022/07/18 12:32:36;;;;;;;4.72;2.75;;;32.50;35.50;;;;;;5095599;28;20071;-25
2022/07/18 12:35:08;;;;;;;4.07;3.00;;;32.60;35.30;;;;;;5076432;28;20417;-25
2022/07/18 12:37:35;;;;;;;3.92;2.95;;;32.90;36.60;;;;;;5077651;28;20044;-25
2022/07/18 12:40:09;;;;;;;3.95;2.95;;;33.10;36.10;;;;;;5106584;28;20092;-25
2022/07/18 12:42:41;;;;;;;5.53;3.10;;;33.20;36.80;;;;;;5116298;28;20085;-25
2022/07/18 12:45:08;;;;;;;4.53;2.70;;;33.40;36.20;;;;;;5115429;28;20043;-25
2022/07/18 12:47:34;;;;;;;6.05;2.85;;;33.50;36.30;;;;;;5116155;28;20063;-25
2022/07/18 12:50:00;;;;;;;3.47;2.60;;;33.30;35.90;;;;;;5096764;28;20040;-25
2022/07/18 12:52:26;;;;;;;4.43;3.10;;;33.30;35.50;;;;;;5095938;28;20108;-25
2022/07/18 12:54:52;;;;;;;6.05;3.10;;;33.20;35.10;;;;;;5093290;28;20353;-25